Cebollita Spring, Valles Caldera, New Mexico Weather observations

Data are for 10 minute period ending at time listed.
 Day   Time   Solar   Ave.   Ave.  Ave.  Vector  Max.   Baro.   Total    
  of    of     Rad.   Air    Rel.  Wind   Wind   Wind  Press.  Precip.   
Year   Day            Temp.  Hum.  Speed  Dir.   Gust                    
2016   (MST)  Kw/m2    F      %     mph   deg.    mph    mb.     in.     
-------------------------------------------------------------------------
 176   12:30   1.13   81.2    19    6.4   221    14.3   99999.0    0.00 
 176   12:40   1.18   82.1    19    7.8   251    15.5   99999.0    0.00 
 176   12:50   1.13   82.8    17    5.6   252    13.7   99999.0    0.00 
 176   13:00   0.54   81.7    17    7.5   270    13.1   99999.0    0.00 
 176   13:10   0.34   80.0    17    8.3   283    16.1   99999.0    0.00 
 176   13:20   0.39   79.0    17    5.8   290    11.3   99999.0    0.00 
 176   13:30   0.73   80.6    17    3.6   252     9.6   99999.0    0.00 
 176   13:40   0.51   81.4    16    6.2   285    14.3   99999.0    0.00 
 176   13:50   0.62   81.3    16    5.5   258    13.1   99999.0    0.00 
 176   14:00   0.32   80.8    16    4.4   311    14.3   99999.0    0.00 
 176   14:10   0.26   79.8    16    5.4   310    10.2   99999.0    0.00 
 176   14:20   1.19   82.6    14    7.9   249    16.1   99999.0    0.00 
 176   14:30   0.42   82.7    14    7.4   273    14.3   99999.0    0.00 
 176   14:40   0.35   81.0    14    6.6   251    14.9   99999.0    0.00 
 176   14:50   0.26   80.0    14    6.2   247    11.3   99999.0    0.00 
 176   15:00   0.26   79.8    15    6.1   240    17.9   99999.0    0.00 
 176   15:10   0.85   82.5    14    8.4   250    17.3   99999.0    0.00 
 176   15:20   0.48   83.3    14    8.0   291    24.5   99999.0    0.00 
 176   15:30   0.61   82.2    14    9.2   241    16.7   99999.0    0.00 
 176   15:40   0.35   80.7    14    8.0   254    14.3   99999.0    0.00 
 176   15:50   0.23   79.6    15    6.9   248    13.1   99999.0    0.00 
 176   16:00   0.23   78.9    16    6.4   256    14.3   99999.0    0.00 
 176   16:10   0.21   79.1    16    5.7   291    12.5   99999.0    0.00 
 176   16:20   0.25   78.9    16    6.0   285    12.5   99999.0    0.00 
 176   16:30   0.27   78.9    17    6.6   287    10.2   99999.0    0.00 
 176   16:40   0.24   78.8    17    7.9   255    13.1   99999.0    0.00 
 176   16:50   0.31   79.0    17    6.3   263    11.7   99999.0    0.00 
 176   17:00   0.18   79.0    17    6.1   278    10.8   99999.0    0.00 
 176   17:10   0.14   77.7    17    7.0   260    13.7   99999.0    0.00 
 176   17:20   0.11   77.1    18    5.7   284     9.6   99999.0    0.00 
 176   17:30   0.08   76.7    18    5.0   259    10.2   99999.0    0.00 
 176   17:40   0.09   75.9    20    8.0   254    20.3   99999.0    0.00 
 176   17:50   0.07   74.4    24   12.0   264    23.3   99999.0    0.00 
 176   18:00   0.05   73.5    25    9.1   262    19.7   99999.0    0.00 
 176   18:10   0.05   72.6    26    9.6   261    16.1   99999.0    0.00 
 176   18:20   0.05   72.0    27    8.1   262    19.1   99999.0    0.00 
 176   18:30   0.05   71.5    27    8.5   259    17.3   99999.0    0.00 
 176   18:40   0.04   70.8    28    7.6   264    15.5   99999.0    0.00 
 176   18:50   0.03   70.3    28    7.9   259    14.3   99999.0    0.00 
 176   19:00   0.02   69.7    29    6.5   262    14.3   99999.0    0.00 
 176   19:10   0.01   69.3    29    6.3   265    13.7   99999.0    0.00 
 176   19:20   0.01   69.1    29    5.9   261    11.3   99999.0    0.00 
 176   19:30   0.00   69.0    29    5.1   269     9.0   99999.0    0.00 
 176   19:40   0.00   68.8    29    4.6   268     8.4   99999.0    0.00 
 176   19:50   0.00   68.5    29    4.7   278     7.2   99999.0    0.00 
 176   20:00   0.00   68.3    30    4.1   274     9.0   99999.0    0.00 
 176   20:10   0.00   68.0    30    3.5   269     6.6   99999.0    0.00 
 176   20:20   0.00   67.7    30    5.2   252    10.8   99999.0    0.00 
 176   20:30   0.00   68.0    30    4.6   270     9.0   99999.0    0.00 
 176   20:40   0.00   67.7    30    3.4   296     7.2   99999.0    0.00 
 176   20:50   0.00   67.3    31    3.0   304     5.4   99999.0    0.00 
 176   21:00   0.00   66.6    32    3.6   299     9.0   99999.0    0.00 
 176   21:10   0.00   65.5    33    2.8   314     6.0   99999.0    0.00 
 176   21:20   0.00   64.2    35    4.3   330     7.8   99999.0    0.00 
 176   21:30   0.00   63.9    36    4.1   326     6.6   99999.0    0.00 
 176   21:40   0.00   63.8    36    2.3   328     4.8   99999.0    0.00 
 176   21:50   0.00   63.4    37    2.8   346     4.8   99999.0    0.00 
 176   22:00   0.00   63.1    38    3.1   347     6.6   99999.0    0.00 
 176   22:10   0.00   63.2    38    3.1     2     6.0   99999.0    0.00 
 176   22:20   0.00   63.1    38    1.8     3     4.2   99999.0    0.00 
 176   22:30   0.00   62.5    39    2.0   354     3.6   99999.0    0.00 
 176   22:40   0.00   61.9    40    2.4    11     4.8   99999.0    0.00 
 176   22:50   0.00   61.3    41    1.6    28     4.2   99999.0    0.00 
 176   23:00   0.00   60.5    44    0.2   168     1.2   99999.0    0.00 
 176   23:10   0.00   59.7    45    0.0     0     0.0   99999.0    0.00 
 176   23:20   0.00   59.5    45    0.6   331     1.8   99999.0    0.00 
 176   23:30   0.00   59.3    47    0.3    55     2.4   99999.0    0.00 
 176   23:40   0.00   58.9    48    1.4    53     2.4   99999.0    0.00 
 176   23:50   0.00   58.6    49    0.7    57     2.4   99999.0    0.00 
 177    0:00   0.00   58.2    49    1.6    72     3.6   99999.0    0.00 
 177    0:10   0.00   58.3    49    0.0    64     1.2   99999.0    0.00 
 177    0:20   0.00   58.3    50    2.1    72     3.6   99999.0    0.00 
 177    0:30   0.00   58.2    50    0.6    73     3.0   99999.0    0.00 
 177    0:40   0.00   58.2    50    1.3    61     3.0   99999.0    0.00 
 177    0:50   0.00   58.0    52    0.9    46     2.4   99999.0    0.00 
 177    1:00   0.00   57.8    52    2.1    76     3.6   99999.0    0.00 
 177    1:10   0.00   57.7    52    0.9    72     3.0   99999.0    0.00 
 177    1:20   0.00   57.6    53    1.0    42     2.4   99999.0    0.00 
 177    1:30   0.00   57.3    53    2.4    68     3.6   99999.0    0.00 
 177    1:40   0.00   57.3    53    0.2    67     1.8   99999.0    0.00 
 177    1:50   0.00   57.5    52    2.9    87     4.2   99999.0    0.00 
 177    2:00   0.00   57.7    52    2.1    30     3.6   99999.0    0.00 
 177    2:10   0.00   57.6    53    1.5    93     4.2   99999.0    0.00 
 177    2:20   0.00   57.6    52    1.8    66     3.0   99999.0    0.00 
 177    2:30   0.00   57.9    51    1.8   312     3.6   99999.0    0.00 
 177    2:40   0.00   58.1    50    1.5    27     3.6   99999.0    0.00 
 177    2:50   0.00   58.0    49    3.0   321     6.0   99999.0    0.00 
 177    3:00   0.00   58.8    45    2.4   238     5.4   99999.0    0.00 
 177    3:10   0.00   59.4    42    1.5   152     4.2   99999.0    0.00 
 177    3:20   0.00   59.9    40    1.1   354     2.4   99999.0    0.00 
 177    3:30   0.00   59.1    44    0.3    57     1.8   99999.0    0.00 
 177    3:40   0.00   57.9    48    2.5    73     4.2   99999.0    0.00 
 177    3:50   0.00   57.2    48    2.3   126     5.4   99999.0    0.00 
 177    4:00   0.00   58.7    47    1.2   165     5.4   99999.0    0.00 
 177    4:10   0.00   58.9    48    1.7   165     6.0   99999.0    0.00 
 177    4:20   0.00   59.5    49    3.3   143     6.3   99999.0    0.00 
 177    4:30   0.00   60.1    50    3.2   150     7.2   99999.0    0.00 
 177    4:40   0.00   59.9    50    0.8   139     3.6   99999.0    0.00 
 177    4:50   0.00   59.1    52    2.1   124     3.6   99999.0    0.00 
 177    5:00   0.00   58.3    54    1.7   114     3.0   99999.0    0.00 
 177    5:10   0.00   57.1    56    2.5    99     3.6   99999.0    0.00 
 177    5:20   0.00   55.8    60    3.0    81     4.2   99999.0    0.00 
 177    5:30   0.00   55.9    61    2.5    84     4.2   99999.0    0.00 
 177    5:40   0.01   56.4    62    1.6    79     3.0   99999.0    0.00 
 177    5:50   0.09   57.0    62    0.9    68     2.4   99999.0    0.00 
 177    6:00   0.14   57.6    61    1.8    21     2.4   99999.0    0.00 
 177    6:10   0.14   58.9    59    0.3    34     1.8   99999.0    0.00 
 177    6:20   0.17   60.1    57    0.5    63     2.4   99999.0    0.00 
 177    6:30   0.24   61.8    54    0.6    69     2.4   99999.0    0.00 
 177    6:40   0.34   63.5    48    1.1    96     3.0   99999.0    0.00 
 177    6:50   0.38   64.4    46    2.9   126     5.4   99999.0    0.00 
 177    7:00   0.38   65.2    44    2.3   189     4.8   99999.0    0.00 
 177    7:10   0.39   65.9    43    2.9   191     5.4   99999.0    0.00 
 177    7:20   0.24   66.1    43    2.1   239     4.8   99999.0    0.00 
 177    7:30   0.27   66.0    43    2.7   269     4.2   99999.0    0.00 
 177    7:40   0.31   66.2    42    1.5     8     4.2   99999.0    0.00 
 177    7:50   0.33   66.5    42    3.2   255     4.8   99999.0    0.00 
 177    8:00   0.32   66.9    41    1.0   166     3.6   99999.0    0.00 
 177    8:10   0.34   67.1    41    2.8   242     4.8   99999.0    0.00 
 177    8:20   0.32   67.7    41    2.3   289     4.8   99999.0    0.00 
 177    8:30   0.39   68.6    39    2.4   284     4.8   99999.0    0.00 
 177    8:40   0.36   68.8    39    1.9   346     4.2   99999.0    0.00 
 177    8:50   0.42   69.2    38    2.6   261     4.2   99999.0    0.00 
 177    9:00   0.40   69.8    37    2.8   149     5.4   99999.0    0.00 
 177    9:10   0.40   70.5    35    2.4   172     5.4   99999.0    0.00 
 177    9:20   0.42   70.5    36    1.5   249     3.6   99999.0    0.00 
 177    9:30   0.44   71.0    35    3.3   186     6.0   99999.0    0.00 
 177    9:40   0.39   70.7    35    2.7   219     6.0   99999.0    0.00 
 177    9:50   0.36   70.5    35    3.9   200     9.6   99999.0    0.00 
 177   10:00   0.39   70.6    34    3.0   241     6.6   99999.0    0.00 
 177   10:10   0.51   71.0    33    2.4   200     5.4   99999.0    0.00 
 177   10:20   0.73   72.5    32    3.2    29     7.8   99999.0    0.00 
 177   10:30   0.47   73.0    33    4.4   121     9.0   99999.0    0.00 
 177   10:40   0.43   72.6    32    1.9   104     4.8   99999.0    0.00 
 177   10:50   0.65   73.9    27    3.4   304     9.6   99999.0    0.00 
 177   11:00   0.94   75.6    24    6.3   288    11.9   99999.0    0.00 
 177   11:10   0.91   75.9    23    4.0   334     6.6   99999.0    0.00 
 177   11:20   0.33   74.4    24    3.0   269     7.2   99999.0    0.00 
 177   11:30   0.21   74.0    23    2.9     2     6.0   99999.0    0.00 
 177   11:40   0.19   73.4    23    2.5   324     4.8   99999.0    0.00 
 177   11:50   0.20   71.0    38    5.2   261     9.6   99999.0    0.01 
 177   12:00   0.20   62.4    67    6.4   268    12.5   99999.0    0.00 
 177   12:10   0.19   63.4    59    4.6   285    10.8   99999.0    0.01 
 177   12:20   0.22   65.6    58    2.6   296     6.6   99999.0    0.00 

Return to Cebollita Spring, Valles Caldera graphs page.


Western Regional Climate Center,wrcc@dri.edu